Time;durP1;ratioP1;P1;durP2;ratioP2;P2;SDS_P1;SDS_P2;PMS_P1;PMS_P2;Temp;Humidity;BMP_temperature;BMP_pressure;BME280_temperature;BME280_humidity;BME280_pressure;Samples;Min_cycle;Max_cycle;Signal;HPM_P1;HPM_P2
2021/04/28 00:00:16;;;;;;;18.00;15.93;;;;;;;15.03;66.60;100671.69;5095148;28;20040;-61
2021/04/28 00:02:42;;;;;;;20.60;16.08;;;;;;;15.04;66.79;100668.09;5095147;28;20048;-61
2021/04/28 00:05:14;;;;;;;18.73;15.70;;;;;;;15.03;66.86;100666.41;5094914;28;20416;-60
2021/04/28 00:07:41;;;;;;;18.50;14.80;;;;;;;15.02;66.65;100668.22;5094453;28;20519;-61
2021/04/28 00:10:11;;;;;;;18.67;14.95;;;;;;;15.01;66.73;100660.44;5094618;28;20054;-62
2021/04/28 00:12:38;;;;;;;19.38;15.90;;;;;;;15.00;66.71;100664.84;5094877;28;20507;-61
2021/04/28 00:15:10;;;;;;;20.02;13.75;;;;;;;15.01;66.32;100666.53;5094263;28;20494;-61
2021/04/28 00:17:37;;;;;;;15.63;13.32;;;;;;;15.01;65.91;100666.53;5094470;28;20123;-61
2021/04/28 00:20:09;;;;;;;19.20;13.32;;;;;;;15.01;65.55;100663.91;5094648;28;20052;-61
2021/04/28 00:22:37;;;;;;;17.98;13.52;;;;;;;15.00;65.47;100664.84;5094680;28;20420;-62
2021/04/28 00:25:06;;;;;;;20.02;14.13;;;;;;;14.98;65.37;100664.16;5094328;28;20056;-61
2021/04/28 00:27:33;;;;;;;17.17;13.50;;;;;;;14.98;64.96;100664.16;5094664;28;20048;-61
2021/04/28 00:30:01;;;;;;;17.77;13.90;;;;;;;14.97;64.99;100664.25;5094587;28;20047;-62
2021/04/28 00:32:27;;;;;;;17.00;13.70;;;;;;;14.96;64.92;100666.06;5094301;28;20052;-62
2021/04/28 00:34:55;;;;;;;17.45;12.60;;;;;;;14.95;64.86;100661.72;5094557;28;20044;-61
2021/04/28 00:37:22;;;;;;;17.27;12.25;;;;;;;14.94;64.56;100664.50;5094358;28;20086;-61
2021/04/28 00:39:49;;;;;;;16.00;13.23;;;;;;;14.93;64.19;100658.38;5094377;28;20051;-62
2021/04/28 00:42:17;;;;;;;17.40;13.50;;;;;;;14.92;64.18;100661.09;5094199;28;20056;-61
2021/04/28 00:44:44;;;;;;;17.45;12.93;;;;;;;14.90;64.11;100653.31;5094310;28;20047;-62
2021/04/28 00:47:11;;;;;;;16.73;13.77;;;;;;;14.89;63.52;100650.78;5094314;28;20105;-61
2021/04/28 00:49:38;;;;;;;17.23;12.38;;;;;;;14.88;63.33;100646.47;5094176;28;20139;-62
2021/04/28 00:52:06;;;;;;;19.13;13.75;;;;;;;14.88;63.04;100643.81;5094008;28;20048;-62
2021/04/28 00:54:33;;;;;;;16.35;12.52;;;;;;;14.86;62.79;100641.28;5094239;28;20542;-61
2021/04/28 00:56:59;;;;;;;19.00;13.23;;;;;;;14.85;62.70;100643.09;5094097;28;20052;-61
2021/04/28 00:59:27;;;;;;;22.58;13.95;;;;;;;14.83;62.11;100636.22;5094048;28;20122;-61
2021/04/28 01:01:54;;;;;;;17.70;13.45;;;;;;;14.83;62.18;100641.50;5093330;28;20101;-61
2021/04/28 01:04:22;;;;;;;19.67;12.88;;;;;;;14.81;62.17;100636.34;5093904;28;20044;-61
2021/04/28 01:06:49;;;;;;;16.35;13.38;;;;;;;14.80;62.05;100631.19;5094076;28;20048;-61
2021/04/28 01:09:18;;;;;;;19.25;14.30;;;;;;;14.77;62.10;100624.34;5093742;28;20105;-61
2021/04/28 01:11:44;;;;;;;19.05;14.45;;;;;;;14.75;62.12;100628.06;5093875;28;20048;-61
2021/04/28 01:14:11;;;;;;;18.92;13.68;;;;;;;14.74;62.36;100629.88;5093740;28;20114;-61
2021/04/28 01:16:37;;;;;;;19.45;13.32;;;;;;;14.72;62.29;100629.13;5093733;28;20055;-62
2021/04/28 01:19:05;;;;;;;18.25;13.88;;;;;;;14.71;62.23;100629.25;5093205;28;20072;-61
2021/04/28 01:21:32;;;;;;;18.15;14.32;;;;;;;14.70;62.25;100631.03;5093576;28;20086;-61
2021/04/28 01:23:58;;;;;;;17.88;12.88;;;;;;;14.68;61.89;100633.81;5093761;28;20040;-61
2021/04/28 01:26:28;;;;;;;15.85;12.30;;;;;;;14.67;61.95;100623.38;5092572;28;20052;-62
2021/04/28 01:28:58;;;;;;;16.25;12.60;;;;;;;14.67;61.65;100626.00;5093311;28;20055;-62
2021/04/28 01:31:29;;;;;;;13.68;11.88;;;;;;;14.65;61.30;100631.41;5093407;28;20450;-61
2021/04/28 01:34:02;;;;;;;16.00;12.18;;;;;;;14.64;61.34;100627.09;5093375;28;20534;-63
2021/04/28 01:36:33;;;;;;;14.25;11.35;;;;;;;14.64;61.01;100626.19;5093134;28;20051;-62
2021/04/28 01:39:05;;;;;;;15.82;11.10;;;;;;;14.62;60.73;100621.03;5093277;28;20131;-61
2021/04/28 01:41:37;;;;;;;13.77;10.50;;;;;;;14.61;60.31;100611.41;5093505;28;20044;-61
2021/04/28 01:44:05;;;;;;;12.25;10.13;;;;;;;14.61;59.84;100606.13;5093204;28;20476;-62
2021/04/28 01:46:32;;;;;;;15.10;10.30;;;;;;;14.61;59.67;100605.31;5093294;28;20048;-60
2021/04/28 01:49:00;;;;;;;12.07;9.52;;;;;;;14.60;59.50;100607.13;5092925;28;20105;-62
2021/04/28 01:51:27;;;;;;;14.77;9.02;;;;;;;14.59;59.25;100601.94;5093154;28;20069;-61
2021/04/28 01:53:54;;;;;;;11.85;8.73;;;;;;;14.59;58.79;100597.50;5092719;28;20090;-61
2021/04/28 01:56:22;;;;;;;10.20;8.15;;;;;;;14.59;58.58;100594.00;5092860;28;20101;-62
2021/04/28 01:58:51;;;;;;;11.50;7.88;;;;;;;14.58;58.24;100592.34;5093045;28;20451;-61
2021/04/28 02:01:19;;;;;;;9.35;7.55;;;;;;;14.57;57.96;100596.78;5092791;28;20044;-62
2021/04/28 02:03:45;;;;;;;10.05;8.07;;;;;;;14.59;58.34;100591.38;5093086;28;20044;-61
2021/04/28 02:06:12;;;;;;;12.10;7.75;;;;;;;14.57;57.87;100595.94;5092939;28;20044;-61
2021/04/28 02:08:38;;;;;;;10.13;7.93;;;;;;;14.56;57.83;100594.25;5092786;28;20117;-62
2021/04/28 02:11:04;;;;;;;10.60;7.45;;;;;;;14.54;57.67;100589.94;5092261;28;20048;-62
2021/04/28 02:13:36;;;;;;;11.63;7.80;;;;;;;14.54;57.70;100589.94;5092738;28;20048;-62
2021/04/28 02:16:03;;;;;;;8.93;6.95;;;;;;;14.54;57.64;100587.28;5092632;28;20235;-61
2021/04/28 02:18:29;;;;;;;10.77;7.65;;;;;;;14.52;57.50;100585.72;5092603;28;20109;-61
2021/04/28 02:21:00;;;;;;;10.07;6.85;;;;;;;14.53;57.44;100579.50;5092565;28;20093;-62
2021/04/28 02:23:28;;;;;;;9.68;7.45;;;;;;;14.51;57.07;100571.69;5092657;28;20135;-61
2021/04/28 02:25:58;;;;;;;10.18;7.18;;;;;;;14.51;57.05;100571.69;5092532;28;20052;-61
2021/04/28 02:28:24;;;;;;;7.80;6.38;;;;;;;14.51;57.08;100574.34;5092404;28;20048;-62
2021/04/28 02:30:50;;;;;;;9.27;6.80;;;;;;;14.51;56.90;100579.63;5092485;28;20102;-61
2021/04/28 02:33:17;;;;;;;8.27;6.97;;;;;;;14.51;57.01;100574.34;5092135;28;20044;-62
2021/04/28 02:35:44;;;;;;;9.55;7.35;;;;;;;14.50;56.62;100567.38;5092217;28;20123;-61
2021/04/28 02:38:23;;;;;;;9.55;7.55;;;;;;;14.50;56.98;100566.50;5092118;28;20052;-63
2021/04/28 02:40:50;;;;;;;8.30;6.85;;;;;;;14.49;57.39;100559.56;5092410;28;20048;-61
2021/04/28 02:43:19;;;;;;;9.80;7.45;;;;;;;14.49;57.06;100563.03;5092239;28;20052;-61
2021/04/28 02:45:47;;;;;;;8.95;7.18;;;;;;;14.48;57.21;100553.44;5092110;28;20044;-61
2021/04/28 02:48:16;;;;;;;10.23;6.78;;;;;;;14.48;57.28;100552.59;5092162;28;20117;-61
2021/04/28 02:50:43;;;;;;;9.25;7.03;;;;;;;14.46;57.21;100557.16;5092420;28;20048;-62
2021/04/28 02:53:13;;;;;;;9.30;7.70;;;;;;;14.45;57.21;100548.41;5092323;28;20048;-62
2021/04/28 02:55:39;;;;;;;9.10;7.18;;;;;;;14.44;57.21;100551.16;5092479;28;20040;-61
2021/04/28 02:58:06;;;;;;;9.68;7.32;;;;;;;14.43;57.39;100545.00;5092361;28;20055;-61
2021/04/28 03:00:33;;;;;;;10.25;7.80;;;;;;;14.43;57.16;100555.56;5092077;28;20051;-62
2021/04/28 03:02:59;;;;;;;8.95;6.28;;;;;;;14.41;57.27;100552.22;5088756;28;20044;-64
2021/04/28 03:05:26;;;;;;;7.57;6.40;;;;;;;14.41;57.18;100548.72;5088757;28;20044;-62
2021/04/28 03:07:53;;;;;;;9.35;6.53;;;;;;;14.39;56.89;100546.22;5088501;28;20093;-62
2021/04/28 03:10:20;;;;;;;9.57;6.25;;;;;;;14.37;57.04;100548.97;5088693;28;20052;-62
2021/04/28 03:12:47;;;;;;;8.68;6.22;;;;;;;14.37;56.67;100545.47;5070242;28;20052;-62
2021/04/28 03:15:16;;;;;;;7.57;6.05;;;;;;;14.36;56.74;100541.19;5088620;28;20142;-61
2021/04/28 03:17:47;;;;;;;8.88;6.68;;;;;;;14.35;56.70;100540.31;5088323;28;20048;-62
2021/04/28 03:20:15;;;;;;;8.30;6.28;;;;;;;14.34;56.59;100540.44;5088741;28;20059;-61
2021/04/28 03:22:42;;;;;;;10.98;6.60;;;;;;;14.32;56.90;100540.56;5088870;28;20051;-61
2021/04/28 03:25:10;;;;;;;7.97;6.47;;;;;;;14.33;56.75;100544.03;5088622;28;20052;-62
2021/04/28 03:27:36;;;;;;;7.53;6.40;;;;;;;14.32;56.83;100537.06;5088653;28;20481;-61
2021/04/28 03:30:07;;;;;;;9.52;6.72;;;;;;;14.32;56.94;100542.34;5088607;28;20439;-61
2021/04/28 03:32:34;;;;;;;8.57;6.95;;;;;;;14.32;56.96;100545.00;5088212;28;20036;-61
2021/04/28 03:35:00;;;;;;;10.45;7.07;;;;;;;14.31;56.93;100546.81;5088845;28;20040;-61
2021/04/28 03:37:26;;;;;;;9.68;7.60;;;;;;;14.32;57.17;100550.28;5088508;28;20040;-61
2021/04/28 03:39:52;;;;;;;10.38;7.85;;;;;;;14.31;57.36;100552.06;5088580;28;20109;-61
2021/04/28 03:42:22;;;;;;;9.60;7.38;;;;;;;14.30;57.56;100547.75;5088545;28;20051;-62
2021/04/28 03:44:48;;;;;;;11.07;7.57;;;;;;;14.30;57.62;100549.56;5088563;28;20048;-61
2021/04/28 03:47:15;;;;;;;9.60;7.68;;;;;;;14.29;57.87;100547.88;5087987;28;20051;-61
2021/04/28 03:49:41;;;;;;;8.68;6.95;;;;;;;14.28;57.81;100551.47;5089250;28;20226;-61
2021/04/28 03:52:07;;;;;;;8.70;6.93;;;;;;;14.28;57.91;100549.66;5092016;28;20044;-61
2021/04/28 03:54:33;;;;;;;8.07;6.97;;;;;;;14.28;57.78;100554.09;5091778;28;20493;-61
2021/04/28 03:56:59;;;;;;;8.50;6.85;;;;;;;14.26;57.83;100563.91;5091808;28;20101;-61
2021/04/28 03:59:25;;;;;;;11.93;7.20;;;;;;;14.26;57.80;100563.91;5092236;28;20093;-61
2021/04/28 04:01:51;;;;;;;9.05;6.90;;;;;;;14.25;57.72;100554.34;5091493;28;20485;-62
2021/04/28 04:04:17;;;;;;;8.05;6.43;;;;;;;14.23;57.44;100572.09;5091460;28;20084;-61
2021/04/28 04:06:44;;;;;;;8.23;6.32;;;;;;;14.21;57.37;100566.94;5091818;28;20485;-61
2021/04/28 04:09:10;;;;;;;8.77;6.10;;;;;;;14.21;57.23;100577.47;5091797;28;20055;-61
2021/04/28 04:11:36;;;;;;;9.13;7.32;;;;;;;14.19;57.52;100580.25;5091869;28;20056;-62
2021/04/28 04:14:02;;;;;;;9.63;7.47;;;;;;;14.18;57.75;100583.84;5091461;28;20480;-60
2021/04/28 04:16:29;;;;;;;9.02;6.80;;;;;;;14.17;58.21;100578.66;5091392;28;20528;-61
2021/04/28 04:18:55;;;;;;;8.20;6.38;;;;;;;14.14;58.59;100578.88;5091571;28;20087;-61
2021/04/28 04:21:21;;;;;;;10.68;6.78;;;;;;;14.13;58.69;100588.63;5090478;28;20044;-62
2021/04/28 04:23:48;;;;;;;9.43;6.20;;;;;;;14.10;58.89;100586.19;5091560;28;20048;-61
2021/04/28 04:26:15;;;;;;;9.85;6.38;;;;;;;14.09;58.93;100588.94;5091319;28;20105;-61
2021/04/28 04:28:41;;;;;;;7.68;5.82;;;;;;;14.06;58.79;100591.81;5091165;28;20052;-61
2021/04/28 04:31:07;;;;;;;8.25;5.88;;;;;;;14.00;58.83;100591.28;5091536;28;20093;-61
2021/04/28 04:33:33;;;;;;;8.15;5.90;;;;;;;13.95;58.82;100585.50;5091233;28;20134;-61
2021/04/28 04:35:59;;;;;;;6.32;5.25;;;;;;;13.92;58.64;100604.22;5090975;28;20052;-61
2021/04/28 04:38:26;;;;;;;6.00;5.40;;;;;;;13.85;58.45;100608.25;5090807;28;20052;-61
2021/04/28 04:40:52;;;;;;;7.65;4.95;;;;;;;13.81;58.56;100606.78;5091149;28;20442;-61
2021/04/28 04:43:18;;;;;;;8.00;5.38;;;;;;;13.78;58.39;100607.03;5090553;28;20048;-61
2021/04/28 04:45:44;;;;;;;8.10;5.50;;;;;;;13.78;58.31;100612.31;5091050;28;20093;-61
2021/04/28 04:48:10;;;;;;;7.70;5.00;;;;;;;13.79;58.37;100608.69;5090742;28;20051;-62
2021/04/28 04:50:37;;;;;;;6.90;5.15;;;;;;;13.79;58.23;100609.53;5090842;28;20078;-61
2021/04/28 04:53:11;;;;;;;7.22;4.93;;;;;;;13.79;58.21;100606.91;5091042;28;20048;-61
2021/04/28 04:55:48;;;;;;;7.70;5.35;;;;;;;13.80;58.29;100613.00;5090142;28;20048;-62
2021/04/28 04:58:20;;;;;;;6.78;4.80;;;;;;;13.81;58.48;100615.53;5089388;28;20040;-61
2021/04/28 05:00:46;;;;;;;6.90;5.03;;;;;;;13.83;58.52;100616.28;5089937;28;20040;-66
2021/04/28 05:03:12;;;;;;;8.57;4.88;;;;;;;13.85;58.33;100621.44;5090220;28;20051;-64
2021/04/28 05:05:39;;;;;;;8.23;5.07;;;;;;;13.87;58.35;100619.53;5090935;28;20048;-64
2021/04/28 05:08:05;;;;;;;5.97;4.55;;;;;;;13.86;58.36;100621.34;5090608;28;20439;-64
2021/04/28 05:10:31;;;;;;;6.50;5.03;;;;;;;13.89;57.99;100622.91;5090296;28;20412;-64
2021/04/28 05:12:59;;;;;;;6.00;4.68;;;;;;;13.91;58.05;100622.81;5090100;28;20130;-63
2021/04/28 05:15:25;;;;;;;5.55;4.45;;;;;;;13.90;57.90;100621.09;5090707;28;20044;-63
2021/04/28 05:17:55;;;;;;;7.03;4.97;;;;;;;13.89;57.77;100628.19;5089779;28;20048;-64
2021/04/28 05:20:22;;;;;;;6.20;4.75;;;;;;;13.90;57.71;100631.66;5089734;28;20084;-63
2021/04/28 05:22:48;;;;;;;6.30;4.75;;;;;;;13.92;57.95;100627.13;5090263;28;20459;-65
2021/04/28 05:25:15;;;;;;;10.20;5.18;;;;;;;13.93;57.78;100626.16;5089908;28;20048;-64
2021/04/28 05:27:42;;;;;;;7.68;5.50;;;;;;;13.93;57.96;100629.66;5090378;28;20065;-63
2021/04/28 05:30:09;;;;;;;5.07;4.50;;;;;;;13.91;58.04;100631.53;5090229;28;20043;-66
2021/04/28 05:32:36;;;;;;;6.18;5.15;;;;;;;13.90;58.20;100631.66;5090380;28;20447;-62
2021/04/28 05:35:03;;;;;;;6.85;4.97;;;;;;;13.88;58.35;100631.78;5090005;28;20048;-63
2021/04/28 05:37:29;;;;;;;7.03;5.10;;;;;;;13.85;58.59;100637.25;5089909;28;20090;-63
2021/04/28 05:39:55;;;;;;;9.02;4.88;;;;;;;13.87;58.58;100633.56;5089647;28;20434;-63
2021/04/28 05:42:22;;;;;;;6.28;5.25;;;;;;;13.95;58.42;100633.00;5089917;28;20051;-62
2021/04/28 05:44:49;;;;;;;6.93;4.80;;;;;;;14.04;58.52;100623.56;5089768;28;20041;-63
2021/04/28 05:47:16;;;;;;;5.28;4.38;;;;;;;14.14;58.32;100619.31;5089944;28;20048;-64
2021/04/28 05:49:42;;;;;;;9.63;4.40;;;;;;;14.25;58.29;100622.97;5089823;28;20052;-63
2021/04/28 05:52:08;;;;;;;5.32;4.20;;;;;;;14.31;57.67;100623.34;5089045;28;20040;-63
2021/04/28 05:54:34;;;;;;;5.88;3.92;;;;;;;14.37;57.11;100622.03;5089304;28;20078;-63
2021/04/28 05:57:02;;;;;;;5.45;4.45;;;;;;;14.42;56.79;100621.69;5089061;28;20055;-63
2021/04/28 05:59:28;;;;;;;4.30;3.90;;;;;;;14.46;56.30;100617.88;5089586;28;20518;-63
2021/04/28 06:01:55;;;;;;;5.00;3.72;;;;;;;14.51;55.84;100621.84;5089786;28;20052;-63
2021/04/28 06:04:22;;;;;;;5.75;3.92;;;;;;;14.57;55.56;100625.00;5089468;28;20131;-63
2021/04/28 06:06:59;;;;;;;5.47;4.30;;;;;;;14.60;55.50;100625.59;5089369;28;20054;-63
2021/04/28 06:09:25;;;;;;;5.13;3.38;;;;;;;14.65;55.15;100620.84;5087336;28;20043;-64
2021/04/28 06:11:52;;;;;;;6.05;3.40;;;;;;;14.71;55.14;100616.06;5088821;28;20447;-63
2021/04/28 06:14:19;;;;;;;11.57;3.88;;;;;;;14.75;54.69;100618.31;5089065;28;20054;-62
2021/04/28 06:16:45;;;;;;;4.32;3.30;;;;;;;14.79;54.53;100617.16;5088445;28;20086;-64
2021/04/28 06:19:11;;;;;;;6.00;3.50;;;;;;;14.81;54.13;100617.88;5089054;28;20101;-64
2021/04/28 06:21:41;;;;;;;3.78;3.00;;;;;;;14.86;54.03;100620.16;5089261;28;20044;-63
2021/04/28 06:24:08;;;;;;;5.38;3.65;;;;;;;14.90;53.46;100615.50;5086673;28;20043;-63
2021/04/28 06:26:36;;;;;;;5.85;3.42;;;;;;;14.94;53.51;100617.75;5082455;28;20051;-63
2021/04/28 06:29:03;;;;;;;4.85;3.55;;;;;;;14.97;53.07;100620.19;5083169;28;20051;-63
2021/04/28 06:31:30;;;;;;;6.40;3.40;;;;;;;15.00;53.02;100619.94;5089142;28;20381;-62
2021/04/28 06:33:56;;;;;;;5.35;4.00;;;;;;;15.05;52.82;100613.47;5088494;28;20141;-63
2021/04/28 06:36:22;;;;;;;6.65;3.35;;;;;;;15.11;52.67;100610.31;5070775;28;20048;-63
2021/04/28 06:39:11;;;;;;;4.15;3.38;;;;;;;15.15;52.35;100615.25;5088782;28;20052;-63
2021/04/28 06:41:38;;;;;;;4.47;3.15;;;;;;;15.15;52.18;100620.53;5089013;28;20068;-63
2021/04/28 06:44:07;;;;;;;4.72;3.33;;;;;;;15.16;51.85;100618.72;5088471;28;20044;-63
2021/04/28 06:46:33;;;;;;;7.13;3.38;;;;;;;15.21;52.04;100619.25;5087821;28;20508;-63
2021/04/28 06:49:00;;;;;;;4.70;3.55;;;;;;;15.26;52.19;100613.56;5088137;28;20052;-63
2021/04/28 06:51:26;;;;;;;6.97;4.30;;;;;;;15.30;52.12;100615.00;5088307;28;20051;-63
2021/04/28 06:53:54;;;;;;;8.18;3.92;;;;;;;15.28;52.10;100609.00;5088545;28;20591;-63
2021/04/28 06:56:20;;;;;;;7.18;4.75;;;;;;;15.27;52.00;100609.97;5088282;28;20044;-63
2021/04/28 06:58:49;;;;;;;6.10;4.28;;;;;;;15.26;51.74;100609.13;5088498;28;20048;-62
2021/04/28 07:01:33;;;;;;;4.75;3.30;;;;;;;15.29;51.82;100606.25;5088597;28;20485;-63
2021/04/28 07:04:00;;;;;;;6.43;3.53;;;;;;;15.37;51.83;100605.63;5088250;28;20044;-63
2021/04/28 07:06:26;;;;;;;4.47;2.58;;;;;;;15.47;51.76;100608.41;5088079;28;20051;-63
2021/04/28 07:08:53;;;;;;;5.45;3.00;;;;;;;15.56;51.47;100609.47;5087775;28;20411;-63
2021/04/28 07:11:50;;;;;;;3.00;2.50;;;;;;;15.64;51.21;100610.53;5088270;28;20052;-63
2021/04/28 07:17:46;;;;;;;4.38;3.45;;;;;;;15.87;50.47;100612.31;5066339;27;20354;-64
2021/04/28 07:20:13;;;;;;;3.65;2.70;;;;;;;15.95;50.54;100607.25;5066200;28;20504;-63
2021/04/28 07:22:39;;;;;;;5.68;3.30;;;;;;;16.02;50.66;100603.13;5066372;28;20095;-63
2021/04/28 07:25:06;;;;;;;5.30;3.40;;;;;;;16.11;50.37;100605.03;5065529;28;20102;-64
2021/04/28 07:27:32;;;;;;;4.38;3.38;;;;;;;16.19;50.36;100607.03;5065182;28;20048;-63
2021/04/28 07:29:58;;;;;;;3.85;3.45;;;;;;;16.27;50.51;100606.41;5065624;28;20460;-64
2021/04/28 07:32:25;;;;;;;7.55;4.55;;;;;;;16.35;50.12;100603.94;5064392;28;20060;-63
2021/04/28 07:34:51;;;;;;;5.72;3.80;;;;;;;16.41;49.64;100603.44;5065501;28;20048;-65
2021/04/28 07:37:17;;;;;;;5.82;3.53;;;;;;;16.49;49.39;100597.47;5065267;28;20866;-64
2021/04/28 07:39:44;;;;;;;4.03;2.95;;;;;;;16.55;49.33;100599.63;5065802;28;20056;-64
2021/04/28 07:42:10;;;;;;;3.08;2.75;;;;;;;16.63;48.97;100599.81;5065666;28;20041;-63
2021/04/28 07:44:36;;;;;;;3.22;2.92;;;;;;;16.75;48.80;100602.41;5065247;28;20838;-65
2021/04/28 07:47:03;;;;;;;4.03;3.22;;;;;;;16.85;48.39;100599.78;5065023;28;20041;-63
2021/04/28 07:49:29;;;;;;;5.18;3.55;;;;;;;16.95;48.15;100603.34;5062721;28;20045;-63
2021/04/28 07:51:56;;;;;;;3.58;3.17;;;;;;;16.99;48.20;100604.78;5065749;28;20049;-63
2021/04/28 07:54:25;;;;;;;3.35;3.03;;;;;;;17.02;47.91;100601.88;5064421;28;20041;-63
2021/04/28 07:56:51;;;;;;;3.25;2.80;;;;;;;17.01;47.59;100602.84;5065104;28;20059;-63
2021/04/28 07:59:17;;;;;;;7.63;3.25;;;;;;;17.01;47.57;100600.19;5062142;28;20122;-64
2021/04/28 08:01:43;;;;;;;3.83;3.03;;;;;;;17.04;47.57;100597.28;5061656;28;20489;-63
2021/04/28 08:04:10;;;;;;;5.30;3.75;;;;;;;17.05;47.69;100606.06;5063793;28;20124;-64
2021/04/28 08:06:36;;;;;;;5.55;3.70;;;;;;;17.02;47.54;100609.81;5065099;28;20055;-63
2021/04/28 08:09:04;;;;;;;5.18;4.10;;;;;;;17.04;47.43;100607.88;5061518;28;20049;-63
2021/04/28 08:11:30;;;;;;;4.70;3.97;;;;;;;17.14;47.25;100606.13;5045013;28;20045;-64
2021/04/28 08:13:56;;;;;;;4.80;4.10;;;;;;;17.24;47.13;100606.16;5044779;28;20512;-64
2021/04/28 08:16:23;;;;;;;5.97;4.88;;;;;;;17.36;46.57;100611.38;5045072;28;20107;-63
2021/04/28 08:18:52;;;;;;;4.78;4.07;;;;;;;17.45;46.22;100608.72;5045309;28;20041;-63
2021/04/28 08:21:18;;;;;;;5.82;3.92;;;;;;;17.55;46.15;100613.25;5044671;28;20049;-63
2021/04/28 08:23:45;;;;;;;8.32;6.50;;;;;;;17.64;45.64;100612.41;5044278;28;20501;-63
2021/04/28 08:26:13;;;;;;;6.13;4.50;;;;;;;17.74;45.84;100612.44;5044360;28;20053;-63
2021/04/28 08:28:43;;;;;;;6.80;4.43;;;;;;;17.86;45.70;100615.81;5033542;28;20076;-63
2021/04/28 08:31:12;;;;;;;4.85;3.33;;;;;;;17.97;45.22;100614.84;5031562;28;20057;-63
2021/04/28 08:33:42;;;;;;;5.22;3.58;;;;;;;18.08;44.56;100618.25;5031424;28;20053;-63
2021/04/28 08:36:09;;;;;;;5.07;3.67;;;;;;;18.17;44.69;100616.56;5031379;28;20053;-63
2021/04/28 08:38:36;;;;;;;4.82;3.42;;;;;;;18.28;44.51;100613.78;5031358;28;20513;-63
2021/04/28 08:41:05;;;;;;;3.97;3.47;;;;;;;18.39;44.11;100620.75;5031283;28;20478;-63
2021/04/28 08:43:32;;;;;;;4.72;3.65;;;;;;;18.50;44.36;100618.91;5030913;28;20041;-64
2021/04/28 08:46:00;;;;;;;5.22;3.90;;;;;;;18.59;43.69;100620.72;5031051;28;20490;-64
2021/04/28 08:48:30;;;;;;;6.45;3.95;;;;;;;18.68;43.75;100621.69;5031130;28;20986;-64
2021/04/28 08:50:58;;;;;;;5.28;4.35;;;;;;;18.78;43.58;100614.53;5031180;28;20502;-64
2021/04/28 08:53:27;;;;;;;5.63;3.97;;;;;;;18.87;43.22;100618.97;5031150;28;20478;-63
2021/04/28 08:55:53;;;;;;;7.20;3.60;;;;;;;18.95;42.76;100612.16;5035834;28;20068;-63
2021/04/28 08:58:21;;;;;;;4.28;3.67;;;;;;;19.03;42.90;100617.56;5049792;28;20103;-64
2021/04/28 09:00:47;;;;;;;3.90;3.50;;;;;;;19.12;42.67;100614.03;5050489;28;20044;-64
2021/04/28 09:03:16;;;;;;;4.75;3.53;;;;;;;19.22;42.22;100614.00;5050407;28;20567;-63
2021/04/28 09:05:44;;;;;;;6.53;3.95;;;;;;;19.32;42.03;100621.94;5048026;28;20072;-64
2021/04/28 09:08:12;;;;;;;5.30;4.35;;;;;;;19.41;41.63;100618.38;5050590;28;20464;-63
2021/04/28 09:10:39;;;;;;;5.05;4.10;;;;;;;19.51;41.11;100618.34;5050118;28;20064;-64
2021/04/28 09:13:09;;;;;;;4.13;3.30;;;;;;;19.59;41.19;100610.44;5050229;28;20049;-64
2021/04/28 09:15:46;;;;;;;4.70;3.65;;;;;;;19.61;40.76;100611.13;5050007;28;20119;-63
2021/04/28 09:18:15;;;;;;;4.80;3.72;;;;;;;19.63;40.50;100598.53;5050394;28;20478;-64
2021/04/28 09:20:50;;;;;;;4.07;3.67;;;;;;;19.63;40.11;100601.19;5050602;28;20471;-63
2021/04/28 09:23:26;;;;;;;4.67;4.13;;;;;;;19.72;40.31;100602.94;5050318;28;20056;-63
2021/04/28 09:25:53;;;;;;;6.30;4.88;;;;;;;19.80;39.97;100596.03;5049855;28;20294;-64
2021/04/28 09:28:36;;;;;;;7.78;4.70;;;;;;;19.73;39.45;100604.63;5049609;28;20051;-63
2021/04/28 09:31:05;;;;;;;4.97;4.30;;;;;;;19.74;39.50;100600.13;5047241;28;20041;-63
2021/04/28 09:33:55;;;;;;;5.13;4.28;;;;;;;19.84;39.78;100592.94;5046695;28;20044;-64
2021/04/28 09:36:35;;;;;;;4.43;3.75;;;;;;;20.03;40.25;100602.59;5049894;28;20045;-64
2021/04/28 09:39:06;;;;;;;6.05;4.63;;;;;;;20.20;39.93;100602.75;5047328;28;20052;-64
2021/04/28 09:41:46;;;;;;;9.80;4.25;;;;;;;20.37;39.78;100603.72;5030302;28;20049;-64
2021/04/28 09:44:18;;;;;;;4.93;4.18;;;;;;;20.43;39.43;100600.44;5029707;28;20053;-64
2021/04/28 09:47:02;;;;;;;5.38;4.75;;;;;;;20.36;38.26;100594.06;5029672;28;20053;-64
2021/04/28 09:49:50;;;;;;;5.75;4.40;;;;;;;20.39;38.18;100599.91;5030165;28;20137;-64
2021/04/28 09:52:40;;;;;;;5.28;4.25;;;;;;;20.51;38.28;100594.34;5030349;28;20049;-64
2021/04/28 09:55:08;;;;;;;5.57;4.43;;;;;;;20.67;38.90;100594.44;5029676;28;20053;-64
2021/04/28 09:57:44;;;;;;;5.95;4.63;;;;;;;20.81;38.01;100593.06;5029685;28;20111;-64
2021/04/28 10:00:20;;;;;;;5.10;4.60;;;;;;;20.92;37.43;100594.63;5029968;28;20057;-64
2021/04/28 10:02:58;;;;;;;5.80;4.65;;;;;;;21.06;37.49;100592.34;5029603;28;20486;-64
2021/04/28 10:05:36;;;;;;;4.85;4.32;;;;;;;21.17;37.57;100584.06;5029870;28;20067;-63
2021/04/28 10:08:16;;;;;;;4.85;3.95;;;;;;;21.29;37.76;100593.47;5029607;28;20045;-64
2021/04/28 10:10:43;;;;;;;6.10;5.15;;;;;;;21.38;37.17;100588.97;5029904;28;20134;-64
2021/04/28 10:13:11;;;;;;;5.75;4.40;;;;;;;21.50;36.97;100586.84;5029408;28;20045;-64
2021/04/28 10:15:38;;;;;;;5.88;3.92;;;;;;;21.62;36.82;100593.59;5032126;28;20103;-71
2021/04/28 10:18:07;;;;;;;5.05;4.45;;;;;;;21.76;36.70;100588.63;5042416;28;20056;-64
2021/04/28 10:20:36;;;;;;;5.63;4.25;;;;;;;21.88;36.68;100579.28;5049091;28;20057;-65
2021/04/28 10:23:04;;;;;;;5.38;4.60;;;;;;;21.98;35.93;100579.13;5029078;28;20498;-64
2021/04/28 10:25:32;;;;;;;5.07;4.10;;;;;;;22.06;35.94;100583.66;5029453;28;20049;-64
2021/04/28 10:28:05;;;;;;;6.25;4.55;;;;;;;22.09;35.32;100575.28;5029261;28;20482;-64
2021/04/28 10:30:36;;;;;;;5.85;4.47;;;;;;;22.11;35.10;100568.78;5029528;28;20045;-65
2021/04/28 10:33:06;;;;;;;4.90;4.30;;;;;;;22.10;35.94;100576.97;5028806;28;20045;-64
2021/04/28 10:35:33;;;;;;;4.93;4.43;;;;;;;22.16;35.78;100568.28;5035364;28;20049;-64
2021/04/28 10:37:59;;;;;;;4.10;3.70;;;;;;;22.27;36.01;100554.56;5034117;28;20049;-64
2021/04/28 10:40:26;;;;;;;4.10;3.67;;;;;;;22.39;35.75;100552.41;5034671;28;20099;-64
2021/04/28 10:42:53;;;;;;;6.72;4.47;;;;;;;22.54;35.25;100554.38;5029426;28;20049;-63
2021/04/28 10:45:22;;;;;;;5.50;3.80;;;;;;;22.67;35.15;100546.69;5046326;28;20048;-65
2021/04/28 10:47:53;;;;;;;3.60;3.30;;;;;;;22.80;34.95;100546.13;5032621;28;20095;-64
2021/04/28 10:50:27;;;;;;;5.00;4.20;;;;;;;22.92;34.88;100546.59;5044252;28;20045;-65
2021/04/28 10:52:59;;;;;;;5.07;3.88;;;;;;;23.06;34.11;100542.34;5047795;28;20774;-64
2021/04/28 10:55:44;;;;;;;5.20;4.00;;;;;;;23.15;33.55;100538.69;5034735;28;20045;-64
2021/04/28 10:58:26;;;;;;;4.05;3.53;;;;;;;23.22;33.31;100534.28;5029035;28;20049;-64
2021/04/28 11:01:02;;;;;;;4.25;3.60;;;;;;;23.27;33.60;100531.94;5028577;28;20051;-64
2021/04/28 11:03:29;;;;;;;6.18;3.72;;;;;;;23.31;33.08;100530.56;5028814;28;20053;-64
2021/04/28 11:05:58;;;;;;;6.43;4.03;;;;;;;23.45;33.46;100525.44;5028741;28;20061;-64
2021/04/28 11:08:29;;;;;;;7.70;4.20;;;;;;;23.56;33.09;100525.03;5028731;28;20146;-65
2021/04/28 11:10:56;;;;;;;7.03;4.45;;;;;;;23.57;32.86;100533.94;5028539;28;20049;-62
2021/04/28 11:13:24;;;;;;;4.20;3.50;;;;;;;23.66;32.87;100532.84;5039363;28;20103;-62
2021/04/28 11:15:55;;;;;;;4.50;3.75;;;;;;;23.72;32.55;100531.28;5032166;28;20506;-62
2021/04/28 11:18:36;;;;;;;3.53;3.10;;;;;;;23.74;32.52;100535.47;5047445;28;20041;-62
2021/04/28 11:21:37;;;;;;;4.93;3.42;;;;;;;23.75;32.08;100528.28;5048244;28;20056;-63
2021/04/28 11:24:12;;;;;;;4.22;3.33;;;;;;;23.72;32.67;100532.16;5047142;28;20515;-62
2021/04/28 11:26:44;;;;;;;3.50;3.17;;;;;;;23.62;32.70;100526.19;5046857;28;20045;-60
2021/04/28 11:29:12;;;;;;;5.10;3.38;;;;;;;23.70;32.64;100522.63;5044223;28;20041;-59
2021/04/28 11:31:44;;;;;;;4.18;3.45;;;;;;;23.75;32.58;100525.59;5047019;28;20041;-60